sensor_id;sensor_type;location;lat;lon;timestamp;temperature;humidity
23685;DHT22;12020;51.384;6.908;2023-06-10T00:00:37;21.30;99.90
23685;DHT22;12020;51.384;6.908;2023-06-10T00:03:03;21.30;99.90
23685;DHT22;12020;51.384;6.908;2023-06-10T00:05:30;21.30;99.90
23685;DHT22;12020;51.384;6.908;2023-06-10T00:07:56;21.20;99.90
23685;DHT22;12020;51.384;6.908;2023-06-10T00:10:24;21.20;99.90
23685;DHT22;12020;51.384;6.908;2023-06-10T00:12:50;21.10;99.90
23685;DHT22;12020;51.384;6.908;2023-06-10T00:15:17;21.00;99.90
23685;DHT22;12020;51.384;6.908;2023-06-10T00:17:43;21.00;99.90
23685;DHT22;12020;51.384;6.908;2023-06-10T00:20:09;20.90;99.90
23685;DHT22;12020;51.384;6.908;2023-06-10T00:22:37;20.90;99.90
23685;DHT22;12020;51.384;6.908;2023-06-10T00:25:05;20.90;99.90
23685;DHT22;12020;51.384;6.908;2023-06-10T00:27:31;20.80;99.90
23685;DHT22;12020;51.384;6.908;2023-06-10T00:30:02;20.70;99.90
23685;DHT22;12020;51.384;6.908;2023-06-10T00:32:30;20.70;99.90
23685;DHT22;12020;51.384;6.908;2023-06-10T00:34:57;20.70;99.90
23685;DHT22;12020;51.384;6.908;2023-06-10T00:37:22;20.60;99.90
23685;DHT22;12020;51.384;6.908;2023-06-10T00:39:48;20.60;99.90
23685;DHT22;12020;51.384;6.908;2023-06-10T00:42:14;20.60;99.90
23685;DHT22;12020;51.384;6.908;2023-06-10T00:44:39;20.50;99.90
23685;DHT22;12020;51.384;6.908;2023-06-10T00:47:06;20.50;99.90
23685;DHT22;12020;51.384;6.908;2023-06-10T00:49:33;20.50;99.90
23685;DHT22;12020;51.384;6.908;2023-06-10T00:51:59;20.50;99.90
23685;DHT22;12020;51.384;6.908;2023-06-10T00:54:25;20.50;99.90
23685;DHT22;12020;51.384;6.908;2023-06-10T00:56:51;20.50;99.90
23685;DHT22;12020;51.384;6.908;2023-06-10T00:59:18;20.40;99.90
23685;DHT22;12020;51.384;6.908;2023-06-10T01:01:45;20.40;99.90
23685;DHT22;12020;51.384;6.908;2023-06-10T01:04:12;20.40;99.90
23685;DHT22;12020;51.384;6.908;2023-06-10T01:09:23;20.40;99.90
23685;DHT22;12020;51.384;6.908;2023-06-10T01:12:22;20.40;99.90
23685;DHT22;12020;51.384;6.908;2023-06-10T01:14:51;20.30;99.90
23685;DHT22;12020;51.384;6.908;2023-06-10T01:17:17;20.20;99.90
23685;DHT22;12020;51.384;6.908;2023-06-10T01:19:44;20.10;99.90
23685;DHT22;12020;51.384;6.908;2023-06-10T01:22:10;20.00;99.90
23685;DHT22;12020;51.384;6.908;2023-06-10T01:24:37;19.90;99.90
23685;DHT22;12020;51.384;6.908;2023-06-10T01:27:11;19.90;99.90
23685;DHT22;12020;51.384;6.908;2023-06-10T01:29:54;19.80;99.90
23685;DHT22;12020;51.384;6.908;2023-06-10T01:32:28;19.70;99.90
23685;DHT22;12020;51.384;6.908;2023-06-10T01:34:57;19.70;99.90
23685;DHT22;12020;51.384;6.908;2023-06-10T01:37:26;19.70;99.90
23685;DHT22;12020;51.384;6.908;2023-06-10T01:39:57;19.60;99.90
23685;DHT22;12020;51.384;6.908;2023-06-10T01:42:25;19.50;99.90
23685;DHT22;12020;51.384;6.908;2023-06-10T01:44:51;19.50;99.90
23685;DHT22;12020;51.384;6.908;2023-06-10T01:47:16;19.40;99.90
23685;DHT22;12020;51.384;6.908;2023-06-10T01:49:43;19.40;99.90
23685;DHT22;12020;51.384;6.908;2023-06-10T01:52:09;19.30;99.90
23685;DHT22;12020;51.384;6.908;2023-06-10T01:54:34;19.30;99.90
23685;DHT22;12020;51.384;6.908;2023-06-10T01:57:01;19.30;99.90
23685;DHT22;12020;51.384;6.908;2023-06-10T01:59:27;19.20;99.90
23685;DHT22;12020;51.384;6.908;2023-06-10T02:01:52;19.20;99.90
23685;DHT22;12020;51.384;6.908;2023-06-10T02:04:18;19.10;99.90
23685;DHT22;12020;51.384;6.908;2023-06-10T02:06:44;19.10;99.90
23685;DHT22;12020;51.384;6.908;2023-06-10T02:09:10;19.10;99.90
23685;DHT22;12020;51.384;6.908;2023-06-10T02:11:36;19.10;99.90
23685;DHT22;12020;51.384;6.908;2023-06-10T02:14:02;19.00;99.90
23685;DHT22;12020;51.384;6.908;2023-06-10T02:16:27;19.00;99.90
23685;DHT22;12020;51.384;6.908;2023-06-10T02:18:53;18.90;99.90
23685;DHT22;12020;51.384;6.908;2023-06-10T02:21:20;18.90;99.90
23685;DHT22;12020;51.384;6.908;2023-06-10T02:23:45;18.80;99.90
23685;DHT22;12020;51.384;6.908;2023-06-10T02:26:11;18.80;99.90
23685;DHT22;12020;51.384;6.908;2023-06-10T02:28:37;18.70;99.90
23685;DHT22;12020;51.384;6.908;2023-06-10T02:31:02;18.70;99.90
23685;DHT22;12020;51.384;6.908;2023-06-10T02:33:28;18.60;99.90
23685;DHT22;12020;51.384;6.908;2023-06-10T02:35:54;18.60;99.90
23685;DHT22;12020;51.384;6.908;2023-06-10T02:38:20;18.50;99.90
23685;DHT22;12020;51.384;6.908;2023-06-10T02:40:46;18.50;99.90
23685;DHT22;12020;51.384;6.908;2023-06-10T02:43:11;18.50;99.90
23685;DHT22;12020;51.384;6.908;2023-06-10T02:45:37;18.40;99.90
23685;DHT22;12020;51.384;6.908;2023-06-10T02:48:03;18.40;99.90
23685;DHT22;12020;51.384;6.908;2023-06-10T02:50:29;18.30;99.90
23685;DHT22;12020;51.384;6.908;2023-06-10T02:52:54;18.30;99.90
23685;DHT22;12020;51.384;6.908;2023-06-10T02:55:20;18.30;99.90
23685;DHT22;12020;51.384;6.908;2023-06-10T02:57:46;18.20;99.90
23685;DHT22;12020;51.384;6.908;2023-06-10T03:00:12;18.20;99.90
23685;DHT22;12020;51.384;6.908;2023-06-10T03:02:39;18.20;99.90
23685;DHT22;12020;51.384;6.908;2023-06-10T03:05:06;18.10;99.90
23685;DHT22;12020;51.384;6.908;2023-06-10T03:07:35;18.10;99.90
23685;DHT22;12020;51.384;6.908;2023-06-10T03:10:01;18.10;99.90
23685;DHT22;12020;51.384;6.908;2023-06-10T03:12:27;18.00;99.90
23685;DHT22;12020;51.384;6.908;2023-06-10T03:14:53;18.10;99.90
23685;DHT22;12020;51.384;6.908;2023-06-10T03:17:19;18.10;99.90
23685;DHT22;12020;51.384;6.908;2023-06-10T03:19:45;18.00;99.90
23685;DHT22;12020;51.384;6.908;2023-06-10T03:22:13;18.00;99.90
23685;DHT22;12020;51.384;6.908;2023-06-10T03:24:39;18.00;99.90
23685;DHT22;12020;51.384;6.908;2023-06-10T03:27:07;18.00;99.90
23685;DHT22;12020;51.384;6.908;2023-06-10T03:29:33;17.90;99.90
23685;DHT22;12020;51.384;6.908;2023-06-10T03:31:59;17.90;99.90
23685;DHT22;12020;51.384;6.908;2023-06-10T03:34:24;17.90;99.90
23685;DHT22;12020;51.384;6.908;2023-06-10T03:36:50;17.80;99.90
23685;DHT22;12020;51.384;6.908;2023-06-10T03:39:16;17.80;99.90
23685;DHT22;12020;51.384;6.908;2023-06-10T03:41:41;17.80;99.90
23685;DHT22;12020;51.384;6.908;2023-06-10T03:44:07;17.80;99.90
23685;DHT22;12020;51.384;6.908;2023-06-10T03:46:33;17.80;99.90
23685;DHT22;12020;51.384;6.908;2023-06-10T03:48:58;17.70;99.90
23685;DHT22;12020;51.384;6.908;2023-06-10T03:51:29;17.80;99.90
23685;DHT22;12020;51.384;6.908;2023-06-10T03:53:55;17.70;99.90
23685;DHT22;12020;51.384;6.908;2023-06-10T03:56:20;17.70;99.90
23685;DHT22;12020;51.384;6.908;2023-06-10T03:58:46;17.70;99.90
23685;DHT22;12020;51.384;6.908;2023-06-10T04:01:12;17.70;99.90
23685;DHT22;12020;51.384;6.908;2023-06-10T04:03:40;17.70;99.90
23685;DHT22;12020;51.384;6.908;2023-06-10T04:06:07;17.70;99.90
23685;DHT22;12020;51.384;6.908;2023-06-10T04:08:32;17.70;99.90
23685;DHT22;12020;51.384;6.908;2023-06-10T04:10:58;17.70;99.90
23685;DHT22;12020;51.384;6.908;2023-06-10T04:13:24;17.60;99.90
23685;DHT22;12020;51.384;6.908;2023-06-10T04:15:49;17.60;99.90
23685;DHT22;12020;51.384;6.908;2023-06-10T04:18:16;17.70;99.90
23685;DHT22;12020;51.384;6.908;2023-06-10T04:20:42;17.70;99.90
23685;DHT22;12020;51.384;6.908;2023-06-10T04:23:07;17.70;99.90
23685;DHT22;12020;51.384;6.908;2023-06-10T04:25:33;17.70;99.90
23685;DHT22;12020;51.384;6.908;2023-06-10T04:27:59;17.70;99.90
23685;DHT22;12020;51.384;6.908;2023-06-10T04:30:25;17.70;99.90
23685;DHT22;12020;51.384;6.908;2023-06-10T04:32:50;17.70;99.90
23685;DHT22;12020;51.384;6.908;2023-06-10T04:35:16;17.70;99.90
23685;DHT22;12020;51.384;6.908;2023-06-10T04:37:41;17.70;99.90
23685;DHT22;12020;51.384;6.908;2023-06-10T04:40:08;17.80;99.90
23685;DHT22;12020;51.384;6.908;2023-06-10T04:42:35;17.80;99.90
23685;DHT22;12020;51.384;6.908;2023-06-10T04:45:01;17.80;99.90
23685;DHT22;12020;51.384;6.908;2023-06-10T04:47:27;17.80;99.90
23685;DHT22;12020;51.384;6.908;2023-06-10T04:49:53;17.80;99.90
23685;DHT22;12020;51.384;6.908;2023-06-10T04:52:19;17.80;99.90
23685;DHT22;12020;51.384;6.908;2023-06-10T04:54:45;17.90;99.90
23685;DHT22;12020;51.384;6.908;2023-06-10T04:57:10;17.90;99.90
23685;DHT22;12020;51.384;6.908;2023-06-10T04:59:37;17.90;99.90
23685;DHT22;12020;51.384;6.908;2023-06-10T05:02:06;17.90;99.90
23685;DHT22;12020;51.384;6.908;2023-06-10T05:04:32;18.00;99.90
23685;DHT22;12020;51.384;6.908;2023-06-10T05:06:58;18.00;99.90
23685;DHT22;12020;51.384;6.908;2023-06-10T05:09:23;18.20;99.90
23685;DHT22;12020;51.384;6.908;2023-06-10T05:11:49;18.20;99.90
23685;DHT22;12020;51.384;6.908;2023-06-10T05:14:15;18.20;99.90
23685;DHT22;12020;51.384;6.908;2023-06-10T05:16:44;18.30;99.90
23685;DHT22;12020;51.384;6.908;2023-06-10T05:19:10;18.30;99.90
23685;DHT22;12020;51.384;6.908;2023-06-10T05:21:36;18.30;99.90
23685;DHT22;12020;51.384;6.908;2023-06-10T05:24:02;18.40;99.90
23685;DHT22;12020;51.384;6.908;2023-06-10T05:26:28;18.40;99.90
23685;DHT22;12020;51.384;6.908;2023-06-10T05:28:54;18.50;99.90
23685;DHT22;12020;51.384;6.908;2023-06-10T05:31:20;18.50;99.90
23685;DHT22;12020;51.384;6.908;2023-06-10T05:33:45;18.70;99.90
23685;DHT22;12020;51.384;6.908;2023-06-10T05:36:11;18.70;99.90
23685;DHT22;12020;51.384;6.908;2023-06-10T05:38:37;18.70;99.90
23685;DHT22;12020;51.384;6.908;2023-06-10T05:41:02;18.80;99.90
23685;DHT22;12020;51.384;6.908;2023-06-10T05:43:28;18.90;99.90
23685;DHT22;12020;51.384;6.908;2023-06-10T05:45:54;18.90;99.90
23685;DHT22;12020;51.384;6.908;2023-06-10T05:48:20;19.00;99.90
23685;DHT22;12020;51.384;6.908;2023-06-10T05:50:45;19.00;99.90
23685;DHT22;12020;51.384;6.908;2023-06-10T05:53:14;19.10;99.90
23685;DHT22;12020;51.384;6.908;2023-06-10T05:55:44;19.10;99.90
23685;DHT22;12020;51.384;6.908;2023-06-10T05:58:10;19.10;99.90
23685;DHT22;12020;51.384;6.908;2023-06-10T06:00:41;19.20;99.90
23685;DHT22;12020;51.384;6.908;2023-06-10T06:03:10;19.20;99.90
23685;DHT22;12020;51.384;6.908;2023-06-10T06:05:36;19.30;99.90
23685;DHT22;12020;51.384;6.908;2023-06-10T06:08:06;19.30;99.90
23685;DHT22;12020;51.384;6.908;2023-06-10T06:10:32;19.40;99.90
23685;DHT22;12020;51.384;6.908;2023-06-10T06:12:57;19.40;99.90
23685;DHT22;12020;51.384;6.908;2023-06-10T06:15:23;19.50;99.90
23685;DHT22;12020;51.384;6.908;2023-06-10T06:17:49;19.60;99.90
23685;DHT22;12020;51.384;6.908;2023-06-10T06:20:20;19.60;99.90
23685;DHT22;12020;51.384;6.908;2023-06-10T06:22:46;19.70;99.90
23685;DHT22;12020;51.384;6.908;2023-06-10T06:25:13;19.70;99.90
23685;DHT22;12020;51.384;6.908;2023-06-10T06:27:39;19.80;99.90
23685;DHT22;12020;51.384;6.908;2023-06-10T06:30:06;19.80;99.90
23685;DHT22;12020;51.384;6.908;2023-06-10T06:32:32;19.90;99.90
23685;DHT22;12020;51.384;6.908;2023-06-10T06:34:58;19.90;99.90
23685;DHT22;12020;51.384;6.908;2023-06-10T06:37:24;20.00;99.90
23685;DHT22;12020;51.384;6.908;2023-06-10T06:39:54;20.00;99.90
23685;DHT22;12020;51.384;6.908;2023-06-10T06:42:20;20.10;99.90
23685;DHT22;12020;51.384;6.908;2023-06-10T06:44:46;20.10;99.90
23685;DHT22;12020;51.384;6.908;2023-06-10T06:47:13;20.20;99.90
23685;DHT22;12020;51.384;6.908;2023-06-10T06:49:38;20.20;99.90
23685;DHT22;12020;51.384;6.908;2023-06-10T06:52:04;20.30;99.90
23685;DHT22;12020;51.384;6.908;2023-06-10T06:54:30;20.30;99.90
23685;DHT22;12020;51.384;6.908;2023-06-10T06:56:56;20.40;99.90
23685;DHT22;12020;51.384;6.908;2023-06-10T06:59:21;20.50;99.90
23685;DHT22;12020;51.384;6.908;2023-06-10T07:01:49;20.50;99.90
23685;DHT22;12020;51.384;6.908;2023-06-10T07:04:15;20.60;99.90
23685;DHT22;12020;51.384;6.908;2023-06-10T07:06:41;20.70;99.90
23685;DHT22;12020;51.384;6.908;2023-06-10T07:09:10;20.80;99.90
23685;DHT22;12020;51.384;6.908;2023-06-10T07:11:36;20.90;99.90
23685;DHT22;12020;51.384;6.908;2023-06-10T07:14:01;20.90;99.90
23685;DHT22;12020;51.384;6.908;2023-06-10T07:16:27;21.10;99.90
23685;DHT22;12020;51.384;6.908;2023-06-10T07:18:53;21.20;99.90
23685;DHT22;12020;51.384;6.908;2023-06-10T07:21:19;21.20;99.90
23685;DHT22;12020;51.384;6.908;2023-06-10T07:23:46;21.30;99.90
23685;DHT22;12020;51.384;6.908;2023-06-10T07:26:11;21.40;99.90
23685;DHT22;12020;51.384;6.908;2023-06-10T07:28:42;21.50;99.90
23685;DHT22;12020;51.384;6.908;2023-06-10T07:31:08;21.60;99.90
23685;DHT22;12020;51.384;6.908;2023-06-10T07:33:34;21.80;99.90
23685;DHT22;12020;51.384;6.908;2023-06-10T07:36:00;21.90;99.90
23685;DHT22;12020;51.384;6.908;2023-06-10T07:38:26;22.00;99.90
23685;DHT22;12020;51.384;6.908;2023-06-10T07:40:52;22.20;99.90
23685;DHT22;12020;51.384;6.908;2023-06-10T07:43:18;22.30;99.90
23685;DHT22;12020;51.384;6.908;2023-06-10T07:45:45;22.50;99.90
23685;DHT22;12020;51.384;6.908;2023-06-10T07:48:11;22.70;99.90
23685;DHT22;12020;51.384;6.908;2023-06-10T07:50:36;22.80;99.90
23685;DHT22;12020;51.384;6.908;2023-06-10T07:53:03;23.00;99.90
23685;DHT22;12020;51.384;6.908;2023-06-10T07:55:29;23.20;99.90
23685;DHT22;12020;51.384;6.908;2023-06-10T07:57:55;23.50;99.90
23685;DHT22;12020;51.384;6.908;2023-06-10T08:00:21;23.70;99.90
23685;DHT22;12020;51.384;6.908;2023-06-10T08:02:49;24.00;99.90
23685;DHT22;12020;51.384;6.908;2023-06-10T08:05:16;24.20;99.90
23685;DHT22;12020;51.384;6.908;2023-06-10T08:07:42;24.40;99.90
23685;DHT22;12020;51.384;6.908;2023-06-10T08:10:08;24.70;99.90
23685;DHT22;12020;51.384;6.908;2023-06-10T08:12:34;25.00;99.90
23685;DHT22;12020;51.384;6.908;2023-06-10T08:15:00;25.20;99.90
23685;DHT22;12020;51.384;6.908;2023-06-10T08:17:26;25.40;99.90
23685;DHT22;12020;51.384;6.908;2023-06-10T08:19:51;25.60;99.90
23685;DHT22;12020;51.384;6.908;2023-06-10T08:22:17;25.80;99.90
23685;DHT22;12020;51.384;6.908;2023-06-10T08:24:43;26.00;99.90
23685;DHT22;12020;51.384;6.908;2023-06-10T08:27:09;26.20;99.90
23685;DHT22;12020;51.384;6.908;2023-06-10T08:29:35;26.40;99.90
23685;DHT22;12020;51.384;6.908;2023-06-10T08:32:01;26.60;99.90
23685;DHT22;12020;51.384;6.908;2023-06-10T08:34:27;26.70;99.90
23685;DHT22;12020;51.384;6.908;2023-06-10T08:36:53;26.80;99.90
23685;DHT22;12020;51.384;6.908;2023-06-10T08:39:21;27.00;99.90
23685;DHT22;12020;51.384;6.908;2023-06-10T08:44:28;27.40;99.90
23685;DHT22;12020;51.384;6.908;2023-06-10T08:46:58;27.60;99.90
23685;DHT22;12020;51.384;6.908;2023-06-10T08:49:24;27.80;99.90
23685;DHT22;12020;51.384;6.908;2023-06-10T08:51:51;28.00;99.90
23685;DHT22;12020;51.384;6.908;2023-06-10T08:54:20;28.10;99.90
23685;DHT22;12020;51.384;6.908;2023-06-10T08:56:48;28.20;99.50
23685;DHT22;12020;51.384;6.908;2023-06-10T08:59:14;28.30;98.90
23685;DHT22;12020;51.384;6.908;2023-06-10T09:01:42;28.40;99.50
23685;DHT22;12020;51.384;6.908;2023-06-10T09:04:07;28.50;98.50
23685;DHT22;12020;51.384;6.908;2023-06-10T09:06:33;28.60;98.70
23685;DHT22;12020;51.384;6.908;2023-06-10T09:08:59;28.80;98.30
23685;DHT22;12020;51.384;6.908;2023-06-10T09:11:25;29.00;97.20
23685;DHT22;12020;51.384;6.908;2023-06-10T09:13:50;29.00;96.60
23685;DHT22;12020;51.384;6.908;2023-06-10T09:16:16;29.10;97.20
23685;DHT22;12020;51.384;6.908;2023-06-10T09:18:42;29.20;96.50
23685;DHT22;12020;51.384;6.908;2023-06-10T09:21:07;29.40;95.60
23685;DHT22;12020;51.384;6.908;2023-06-10T09:23:33;29.50;95.90
23685;DHT22;12020;51.384;6.908;2023-06-10T09:25:59;29.60;96.10
23685;DHT22;12020;51.384;6.908;2023-06-10T09:28:25;29.70;95.20
23685;DHT22;12020;51.384;6.908;2023-06-10T09:31:01;29.80;95.30
23685;DHT22;12020;51.384;6.908;2023-06-10T09:33:27;30.00;95.20
23685;DHT22;12020;51.384;6.908;2023-06-10T09:35:53;30.00;94.90
23685;DHT22;12020;51.384;6.908;2023-06-10T09:38:21;30.20;94.30
23685;DHT22;12020;51.384;6.908;2023-06-10T09:40:53;30.20;93.10
23685;DHT22;12020;51.384;6.908;2023-06-10T09:43:19;30.30;92.30
23685;DHT22;12020;51.384;6.908;2023-06-10T09:45:48;30.30;93.00
23685;DHT22;12020;51.384;6.908;2023-06-10T09:48:14;30.40;93.20
23685;DHT22;12020;51.384;6.908;2023-06-10T09:50:44;30.40;92.30
23685;DHT22;12020;51.384;6.908;2023-06-10T09:53:11;30.40;91.80
23685;DHT22;12020;51.384;6.908;2023-06-10T09:55:39;30.50;92.30
23685;DHT22;12020;51.384;6.908;2023-06-10T09:58:06;30.60;92.60
23685;DHT22;12020;51.384;6.908;2023-06-10T10:00:32;30.70;91.70
23685;DHT22;12020;51.384;6.908;2023-06-10T10:02:58;30.80;91.30
23685;DHT22;12020;51.384;6.908;2023-06-10T10:05:24;30.70;90.50
23685;DHT22;12020;51.384;6.908;2023-06-10T10:07:50;30.70;91.00
23685;DHT22;12020;51.384;6.908;2023-06-10T10:10:17;30.80;91.60
23685;DHT22;12020;51.384;6.908;2023-06-10T10:12:43;30.90;90.90
23685;DHT22;12020;51.384;6.908;2023-06-10T10:15:11;30.80;90.80
23685;DHT22;12020;51.384;6.908;2023-06-10T10:17:38;30.80;91.20
23685;DHT22;12020;51.384;6.908;2023-06-10T10:20:05;30.70;90.40
23685;DHT22;12020;51.384;6.908;2023-06-10T10:22:39;30.70;90.00
23685;DHT22;12020;51.384;6.908;2023-06-10T10:25:16;30.80;90.00
23685;DHT22;12020;51.384;6.908;2023-06-10T10:27:51;30.80;90.90
23685;DHT22;12020;51.384;6.908;2023-06-10T10:30:20;30.70;90.30
23685;DHT22;12020;51.384;6.908;2023-06-10T10:32:55;30.90;90.90
23685;DHT22;12020;51.384;6.908;2023-06-10T10:35:22;30.90;90.20
23685;DHT22;12020;51.384;6.908;2023-06-10T10:37:49;30.90;90.20
23685;DHT22;12020;51.384;6.908;2023-06-10T10:40:14;30.90;89.80
23685;DHT22;12020;51.384;6.908;2023-06-10T10:42:40;31.00;87.60
23685;DHT22;12020;51.384;6.908;2023-06-10T10:45:06;30.80;86.60
23685;DHT22;12020;51.384;6.908;2023-06-10T10:47:32;30.70;86.80
23685;DHT22;12020;51.384;6.908;2023-06-10T10:49:58;30.70;87.70
23685;DHT22;12020;51.384;6.908;2023-06-10T10:52:25;30.70;88.20
23685;DHT22;12020;51.384;6.908;2023-06-10T10:54:52;30.60;87.10
23685;DHT22;12020;51.384;6.908;2023-06-10T10:57:18;30.60;86.30
23685;DHT22;12020;51.384;6.908;2023-06-10T10:59:56;30.60;85.60
23685;DHT22;12020;51.384;6.908;2023-06-10T11:02:41;30.50;86.40
23685;DHT22;12020;51.384;6.908;2023-06-10T11:05:08;30.40;86.60
23685;DHT22;12020;51.384;6.908;2023-06-10T11:07:35;30.40;86.40
23685;DHT22;12020;51.384;6.908;2023-06-10T11:10:08;30.40;86.50
23685;DHT22;12020;51.384;6.908;2023-06-10T11:12:42;30.40;85.50
23685;DHT22;12020;51.384;6.908;2023-06-10T11:15:08;30.40;88.20
23685;DHT22;12020;51.384;6.908;2023-06-10T11:17:33;30.40;86.90
23685;DHT22;12020;51.384;6.908;2023-06-10T11:19:59;30.50;82.80
23685;DHT22;12020;51.384;6.908;2023-06-10T11:22:25;30.30;80.60
23685;DHT22;12020;51.384;6.908;2023-06-10T11:24:50;30.20;82.50
23685;DHT22;12020;51.384;6.908;2023-06-10T11:27:20;30.30;84.00
23685;DHT22;12020;51.384;6.908;2023-06-10T11:29:56;30.40;84.10
23685;DHT22;12020;51.384;6.908;2023-06-10T11:32:22;30.40;79.90
23685;DHT22;12020;51.384;6.908;2023-06-10T11:34:54;30.40;81.00
23685;DHT22;12020;51.384;6.908;2023-06-10T11:37:20;30.30;83.20
23685;DHT22;12020;51.384;6.908;2023-06-10T11:39:46;30.40;84.90
23685;DHT22;12020;51.384;6.908;2023-06-10T11:42:12;30.40;83.70
23685;DHT22;12020;51.384;6.908;2023-06-10T11:44:39;30.50;80.70
23685;DHT22;12020;51.384;6.908;2023-06-10T11:47:12;30.50;80.50
23685;DHT22;12020;51.384;6.908;2023-06-10T11:49:38;30.50;81.50
23685;DHT22;12020;51.384;6.908;2023-06-10T11:52:04;30.50;80.80
23685;DHT22;12020;51.384;6.908;2023-06-10T11:54:30;30.40;83.50
23685;DHT22;12020;51.384;6.908;2023-06-10T11:56:59;30.40;80.70
23685;DHT22;12020;51.384;6.908;2023-06-10T11:59:29;30.40;81.30
23685;DHT22;12020;51.384;6.908;2023-06-10T12:01:55;30.40;81.30
23685;DHT22;12020;51.384;6.908;2023-06-10T12:04:20;30.30;81.60
23685;DHT22;12020;51.384;6.908;2023-06-10T12:06:50;30.30;79.50
23685;DHT22;12020;51.384;6.908;2023-06-10T12:09:20;30.30;80.90
23685;DHT22;12020;51.384;6.908;2023-06-10T12:11:59;30.30;81.40
23685;DHT22;12020;51.384;6.908;2023-06-10T12:17:10;30.40;78.60
23685;DHT22;12020;51.384;6.908;2023-06-10T12:19:39;30.30;79.30
23685;DHT22;12020;51.384;6.908;2023-06-10T12:22:05;30.30;80.50
23685;DHT22;12020;51.384;6.908;2023-06-10T12:24:30;30.40;81.40
23685;DHT22;12020;51.384;6.908;2023-06-10T12:26:56;30.40;78.50
23685;DHT22;12020;51.384;6.908;2023-06-10T12:29:23;30.30;78.00
23685;DHT22;12020;51.384;6.908;2023-06-10T12:32:00;30.30;79.50
23685;DHT22;12020;51.384;6.908;2023-06-10T12:36:54;30.30;78.40
23685;DHT22;12020;51.384;6.908;2023-06-10T12:39:20;30.30;78.00
23685;DHT22;12020;51.384;6.908;2023-06-10T12:41:48;30.20;79.80
23685;DHT22;12020;51.384;6.908;2023-06-10T12:44:15;30.20;80.10
23685;DHT22;12020;51.384;6.908;2023-06-10T12:46:42;30.20;80.10
23685;DHT22;12020;51.384;6.908;2023-06-10T12:49:08;30.30;81.30
23685;DHT22;12020;51.384;6.908;2023-06-10T12:51:43;30.30;81.20
23685;DHT22;12020;51.384;6.908;2023-06-10T12:54:09;30.40;81.30
23685;DHT22;12020;51.384;6.908;2023-06-10T12:56:35;30.40;79.40
23685;DHT22;12020;51.384;6.908;2023-06-10T12:59:01;30.30;79.80
23685;DHT22;12020;51.384;6.908;2023-06-10T13:01:28;30.30;82.50
23685;DHT22;12020;51.384;6.908;2023-06-10T13:03:53;30.30;78.70
23685;DHT22;12020;51.384;6.908;2023-06-10T13:06:19;30.20;80.70
23685;DHT22;12020;51.384;6.908;2023-06-10T13:08:45;30.20;81.50
23685;DHT22;12020;51.384;6.908;2023-06-10T13:11:12;30.20;79.40
23685;DHT22;12020;51.384;6.908;2023-06-10T13:13:37;30.20;79.90
23685;DHT22;12020;51.384;6.908;2023-06-10T13:16:03;30.30;80.50
23685;DHT22;12020;51.384;6.908;2023-06-10T13:18:28;30.20;80.70
23685;DHT22;12020;51.384;6.908;2023-06-10T13:20:54;30.10;80.80
23685;DHT22;12020;51.384;6.908;2023-06-10T13:23:19;30.20;81.50
23685;DHT22;12020;51.384;6.908;2023-06-10T13:25:45;30.10;81.20
23685;DHT22;12020;51.384;6.908;2023-06-10T13:28:10;30.10;82.00
23685;DHT22;12020;51.384;6.908;2023-06-10T13:30:38;30.10;81.90
23685;DHT22;12020;51.384;6.908;2023-06-10T13:33:03;30.00;80.00
23685;DHT22;12020;51.384;6.908;2023-06-10T13:35:29;29.90;79.90
23685;DHT22;12020;51.384;6.908;2023-06-10T13:37:54;29.90;80.70
23685;DHT22;12020;51.384;6.908;2023-06-10T13:40:20;29.90;81.60
23685;DHT22;12020;51.384;6.908;2023-06-10T13:42:45;30.00;81.80
23685;DHT22;12020;51.384;6.908;2023-06-10T13:45:15;30.00;79.80
23685;DHT22;12020;51.384;6.908;2023-06-10T13:47:41;30.00;80.90
23685;DHT22;12020;51.384;6.908;2023-06-10T13:50:08;30.00;80.60
23685;DHT22;12020;51.384;6.908;2023-06-10T13:52:33;29.90;80.80
23685;DHT22;12020;51.384;6.908;2023-06-10T13:54:59;29.90;81.70
23685;DHT22;12020;51.384;6.908;2023-06-10T13:57:24;30.00;82.20
23685;DHT22;12020;51.384;6.908;2023-06-10T13:59:50;30.00;80.90
23685;DHT22;12020;51.384;6.908;2023-06-10T14:02:15;30.00;80.90
23685;DHT22;12020;51.384;6.908;2023-06-10T14:04:42;29.90;80.50
23685;DHT22;12020;51.384;6.908;2023-06-10T14:07:08;29.90;83.40
23685;DHT22;12020;51.384;6.908;2023-06-10T14:09:34;29.90;80.60
23685;DHT22;12020;51.384;6.908;2023-06-10T14:11:59;29.90;81.30
23685;DHT22;12020;51.384;6.908;2023-06-10T14:14:25;29.90;81.60
23685;DHT22;12020;51.384;6.908;2023-06-10T14:16:50;30.00;80.90
23685;DHT22;12020;51.384;6.908;2023-06-10T14:19:16;29.90;81.40
23685;DHT22;12020;51.384;6.908;2023-06-10T14:21:41;29.80;79.00
23685;DHT22;12020;51.384;6.908;2023-06-10T14:24:07;29.80;79.60
23685;DHT22;12020;51.384;6.908;2023-06-10T14:26:32;29.80;79.20
23685;DHT22;12020;51.384;6.908;2023-06-10T14:28:58;29.80;79.40
23685;DHT22;12020;51.384;6.908;2023-06-10T14:31:23;29.80;79.20
23685;DHT22;12020;51.384;6.908;2023-06-10T14:33:49;29.80;80.10
23685;DHT22;12020;51.384;6.908;2023-06-10T14:36:14;29.80;80.30
23685;DHT22;12020;51.384;6.908;2023-06-10T14:38:40;29.80;77.30
23685;DHT22;12020;51.384;6.908;2023-06-10T14:41:05;29.70;78.70
23685;DHT22;12020;51.384;6.908;2023-06-10T14:43:31;29.60;80.80
23685;DHT22;12020;51.384;6.908;2023-06-10T14:45:56;29.60;81.30
23685;DHT22;12020;51.384;6.908;2023-06-10T14:48:22;29.60;79.70
23685;DHT22;12020;51.384;6.908;2023-06-10T14:50:48;29.60;79.30
23685;DHT22;12020;51.384;6.908;2023-06-10T14:53:19;29.60;82.00
23685;DHT22;12020;51.384;6.908;2023-06-10T14:55:45;29.60;81.20
23685;DHT22;12020;51.384;6.908;2023-06-10T14:58:11;29.70;82.80
23685;DHT22;12020;51.384;6.908;2023-06-10T15:00:36;29.70;81.60
23685;DHT22;12020;51.384;6.908;2023-06-10T15:03:02;29.60;79.90
23685;DHT22;12020;51.384;6.908;2023-06-10T15:05:27;29.60;81.40
23685;DHT22;12020;51.384;6.908;2023-06-10T15:07:53;29.60;81.40
23685;DHT22;12020;51.384;6.908;2023-06-10T15:13:16;29.60;81.80
23685;DHT22;12020;51.384;6.908;2023-06-10T15:15:42;29.60;81.30
23685;DHT22;12020;51.384;6.908;2023-06-10T15:18:07;29.60;81.10
23685;DHT22;12020;51.384;6.908;2023-06-10T15:20:33;29.50;80.40
23685;DHT22;12020;51.384;6.908;2023-06-10T15:22:58;29.50;81.80
23685;DHT22;12020;51.384;6.908;2023-06-10T15:25:24;29.50;81.60
23685;DHT22;12020;51.384;6.908;2023-06-10T15:27:49;29.50;80.20
23685;DHT22;12020;51.384;6.908;2023-06-10T15:30:15;29.40;79.40
23685;DHT22;12020;51.384;6.908;2023-06-10T15:32:41;29.30;81.30
23685;DHT22;12020;51.384;6.908;2023-06-10T15:35:06;29.30;80.20
23685;DHT22;12020;51.384;6.908;2023-06-10T15:37:32;29.30;79.90
23685;DHT22;12020;51.384;6.908;2023-06-10T15:39:57;29.20;79.20